WIII

Jakarta/Soekarno-Hatta International Airport

Airport
ICAO code
WIII
IATA Code
CGK
Summary
ICAO Region
APAC
ICAO Territory
Location

Tangerang, Banten

Serving
Jakarta
Elevation
32 ft
Coordinates
6° 7' 37" S , 106° 39' 15" E
KCC
Metar
Observation
WIII 281800Z 24005KT 2500 HZ SCT020 26/25 Q1007 NOSIG
Station
Jakarta / Soekarno-Hatta
Date/Time
2022-09-28 18:00:00
Wind direction
240°
Wind speed
05 kts
Lowest cloud amount
scattered clouds
Temperature
26°C
Dew point
25°C
Humidity
94%
QNH
1007 hPa
Weather condition
n/a

The principal international airport serving the Jakarta region.

Climatology

Tropical Savanna climate (Köppen climate classification Aw) - monthly mean temperature above 18°C in every month of the year and a pronounced dry season.

Airport map

Aerial View

Airport accidents

SKYbrary Partners:

Safety knowledge contributed by: